Time;durP1;ratioP1;P1;durP2;ratioP2;P2;SDS_P1;SDS_P2;PMS_P1;PMS_P2;Temp;Humidity;BMP_temperature;BMP_pressure;BME280_temperature;BME280_humidity;BME280_pressure;Samples;Min_cycle;Max_cycle;Signal;HPM_P1;HPM_P2
2021/11/15 00:02:31;;;;;;;7.57;5.03;;;;;;;6.21;61.53;102175.53;7996387;28;20048;-67
2021/11/15 00:06:22;;;;;;;10.20;6.35;;;;;;;6.23;61.38;102165.88;7993625;28;20044;-66
2021/11/15 00:10:16;;;;;;;9.32;5.60;;;;;;;6.24;61.39;102155.44;7993091;28;20028;-66
2021/11/15 00:14:08;;;;;;;9.30;5.60;;;;;;;6.28;61.82;102164.88;7991760;28;20040;-66
2021/11/15 00:18:00;;;;;;;8.32;5.72;;;;;;;6.26;61.45;102161.47;7995638;28;20028;-66
2021/11/15 00:21:50;;;;;;;9.80;5.68;;;;;;;6.34;61.78;102175.16;7995304;28;20041;-66
2021/11/15 00:25:41;;;;;;;9.15;5.65;;;;;;;6.34;62.15;102166.47;7986914;28;20044;-66
2021/11/15 00:29:32;;;;;;;10.10;5.72;;;;;;;6.39;62.02;102175.00;7995072;28;20091;-66
2021/11/15 00:33:22;;;;;;;7.60;5.60;;;;;;;6.42;61.84;102174.94;7992007;28;20086;-66
2021/11/15 00:37:13;;;;;;;8.40;5.70;;;;;;;6.44;61.70;102175.75;8000422;28;20543;-66
2021/11/15 00:41:03;;;;;;;9.30;6.20;;;;;;;6.46;62.05;102176.56;7988624;28;20041;-66
2021/11/15 00:44:54;;;;;;;9.57;6.35;;;;;;;6.44;61.88;102163.56;7991623;28;20033;-67
2021/11/15 00:48:44;;;;;;;7.85;5.53;;;;;;;6.51;62.08;102172.91;7992381;28;20041;-66
2021/11/15 00:52:35;;;;;;;7.57;5.40;;;;;;;6.48;61.86;102162.56;7992526;28;20033;-67
2021/11/15 00:56:26;;;;;;;9.52;5.68;;;;;;;6.55;61.75;102164.09;7996495;28;20406;-66
2021/11/15 01:00:21;;;;;;;7.82;5.35;;;;;;;6.58;62.21;102171.84;7994935;28;20079;-67
2021/11/15 01:04:11;;;;;;;9.13;6.10;;;;;;;6.60;61.79;102166.56;7995980;28;20037;-66
2021/11/15 01:08:03;;;;;;;6.25;4.53;;;;;;;6.56;62.10;102155.38;7993208;28;20166;-67
2021/11/15 01:11:54;;;;;;;6.22;4.65;;;;;;;6.63;62.19;102163.91;7993417;28;20664;-66
2021/11/15 01:15:45;;;;;;;8.43;5.40;;;;;;;6.65;61.95;102158.59;7992613;28;20041;-66
2021/11/15 01:19:35;;;;;;;5.78;4.47;;;;;;;6.66;61.82;102161.19;7991628;28;20036;-66
2021/11/15 01:23:26;;;;;;;8.95;5.10;;;;;;;6.62;62.12;102146.50;7991793;28;20609;-66
2021/11/15 01:27:17;;;;;;;9.10;5.35;;;;;;;6.66;61.97;102149.88;7991480;28;20390;-67
2021/11/15 01:31:07;;;;;;;8.27;4.97;;;;;;;6.64;62.21;102144.69;7992268;28;20042;-66
2021/11/15 01:34:58;;;;;;;8.18;5.45;;;;;;;6.69;62.13;102145.41;7991895;28;20025;-66
2021/11/15 01:38:49;;;;;;;8.65;5.28;;;;;;;6.71;62.02;102145.38;7994519;28;20449;-67
2021/11/15 01:42:40;;;;;;;7.70;4.75;;;;;;;6.70;61.96;102146.28;7992555;28;20083;-67
2021/11/15 01:46:31;;;;;;;7.32;5.07;;;;;;;6.72;61.92;102134.91;7992408;28;20034;-67
2021/11/15 01:50:23;;;;;;;9.95;5.38;;;;;;;6.73;62.09;102131.41;7994347;28;20029;-67
2021/11/15 01:54:14;;;;;;;7.80;5.28;;;;;;;6.74;62.30;102137.47;7987920;28;20021;-68
2021/11/15 01:58:08;;;;;;;7.35;5.18;;;;;;;6.75;62.39;102133.97;7991139;28;20141;-66
2021/11/15 02:01:59;;;;;;;9.27;5.00;;;;;;;6.75;62.30;102137.44;8000811;28;20048;-67
2021/11/15 02:05:49;;;;;;;11.02;6.07;;;;;;;6.76;62.20;102135.69;7981348;28;20037;-68
2021/11/15 02:09:40;;;;;;;12.80;5.72;;;;;;;6.71;61.97;102127.97;7990909;28;20044;-68
2021/11/15 02:13:31;;;;;;;8.98;5.97;;;;;;;6.77;62.25;102145.22;7989146;28;20109;-68
2021/11/15 02:17:23;;;;;;;9.85;5.63;;;;;;;6.77;62.19;102132.16;7987560;28;20096;-68
2021/11/15 02:21:14;;;;;;;11.00;6.82;;;;;;;6.77;62.16;102135.63;7991211;28;20394;-67
2021/11/15 02:25:06;;;;;;;9.52;5.95;;;;;;;6.73;62.37;102125.31;7989485;28;20032;-67
2021/11/15 02:28:57;;;;;;;11.60;5.97;;;;;;;6.77;62.36;102127.78;7989062;28;20029;-68
2021/11/15 02:32:48;;;;;;;9.23;4.97;;;;;;;6.78;62.14;102129.50;7991121;28;20044;-68
2021/11/15 02:36:39;;;;;;;7.30;5.15;;;;;;;6.79;62.41;102138.19;7987529;28;20040;-67
2021/11/15 02:40:30;;;;;;;12.05;5.65;;;;;;;6.75;62.16;102129.59;7998662;28;20048;-68
2021/11/15 02:44:21;;;;;;;8.85;4.82;;;;;;;6.78;62.47;102124.28;7996839;28;20367;-67
2021/11/15 02:48:12;;;;;;;9.80;6.25;;;;;;;6.80;62.35;102132.09;7989410;28;20025;-67
2021/11/15 02:52:03;;;;;;;10.32;6.03;;;;;;;6.84;62.44;102131.91;7996861;28;20136;-68
2021/11/15 02:55:54;;;;;;;9.50;6.57;;;;;;;6.87;62.17;102128.38;7988748;28;20042;-67
2021/11/15 02:59:46;;;;;;;10.20;6.40;;;;;;;6.86;62.52;102132.75;7989886;28;20044;-68
2021/11/15 03:03:37;;;;;;;8.98;5.78;;;;;;;6.87;62.24;102129.22;7997972;28;20040;-68
2021/11/15 03:07:28;;;;;;;12.23;6.43;;;;;;;6.87;62.50;102121.41;7996601;28;20112;-66
2021/11/15 03:11:18;;;;;;;11.15;7.00;;;;;;;6.87;62.26;102120.53;7990229;28;20029;-67
2021/11/15 03:15:19;;;;;;;12.13;6.88;;;;;;;6.87;62.24;102117.94;7989499;28;20666;-67
2021/11/15 03:19:09;;;;;;;10.75;7.07;;;;;;;6.87;62.05;102113.56;7990569;28;20079;-68
2021/11/15 03:23:00;;;;;;;9.68;6.50;;;;;;;6.87;62.50;102117.94;7994349;28;20037;-67
2021/11/15 03:26:50;;;;;;;11.07;7.68;;;;;;;6.87;61.96;102117.94;7983615;28;20780;-68
2021/11/15 03:30:42;;;;;;;10.52;6.53;;;;;;;6.87;61.86;102107.47;7989009;28;20041;-68
2021/11/15 03:34:33;;;;;;;9.77;5.97;;;;;;;6.86;62.13;102109.22;7990541;28;20029;-67
2021/11/15 03:38:24;;;;;;;9.68;6.20;;;;;;;6.86;61.97;102113.59;7996294;28;20727;-68
2021/11/15 03:42:14;;;;;;;8.75;6.05;;;;;;;6.86;61.88;102124.03;7992283;28;20037;-68
2021/11/15 03:46:06;;;;;;;8.73;6.38;;;;;;;6.87;62.31;102121.41;7991436;28;20110;-67
2021/11/15 03:49:57;;;;;;;8.38;5.68;;;;;;;6.87;62.23;102121.41;7995341;28;20421;-68
2021/11/15 03:53:48;;;;;;;9.48;6.13;;;;;;;6.88;62.26;102130.09;7995608;28;20831;-67
2021/11/15 03:57:38;;;;;;;12.10;6.85;;;;;;;6.87;62.09;102125.75;7994853;28;20446;-67
2021/11/15 04:01:32;;;;;;;9.48;6.40;;;;;;;6.88;61.94;102132.72;7998246;28;20036;-68
2021/11/15 04:05:32;;;;;;;11.13;6.47;;;;;;;6.86;61.82;102129.28;7990677;28;20067;-68
2021/11/15 04:09:23;;;;;;;12.02;7.32;;;;;;;6.84;61.76;102131.09;7993939;28;20032;-67
2021/11/15 04:13:27;;;;;;;11.85;6.13;;;;;;;6.85;61.70;102138.00;7995357;28;20025;-67
2021/11/15 04:17:19;;;;;;;11.68;7.20;;;;;;;6.86;61.89;102131.88;7996141;28;20022;-67
2021/11/15 04:21:12;;;;;;;8.40;5.90;;;;;;;6.84;62.14;102126.69;7997379;28;20382;-68
2021/11/15 04:25:04;;;;;;;9.48;5.93;;;;;;;6.85;62.19;102132.78;8001282;28;20544;-67
2021/11/15 04:28:56;;;;;;;9.65;6.30;;;;;;;6.85;61.82;102131.03;8000151;28;20520;-67
2021/11/15 04:32:46;;;;;;;10.65;6.40;;;;;;;6.84;61.71;102125.88;7988061;28;20044;-68
2021/11/15 04:36:39;;;;;;;10.05;6.35;;;;;;;6.83;62.03;102122.41;7996750;28;20040;-68
2021/11/15 04:40:30;;;;;;;9.32;6.63;;;;;;;6.78;62.17;102113.84;7992852;28;20547;-67
2021/11/15 04:44:21;;;;;;;10.13;6.85;;;;;;;6.84;62.28;102125.88;7991714;28;20044;-68
2021/11/15 04:48:11;;;;;;;10.85;6.43;;;;;;;6.84;61.88;102123.25;7988402;28;20075;-67
2021/11/15 04:52:03;;;;;;;11.57;6.78;;;;;;;6.85;61.86;102124.94;7991884;28;20036;-68
2021/11/15 04:55:54;;;;;;;9.07;5.97;;;;;;;6.86;62.12;102124.03;7992253;28;20064;-68
2021/11/15 04:59:46;;;;;;;13.60;6.90;;;;;;;6.86;62.19;102121.44;7991595;28;20041;-67
2021/11/15 05:03:37;;;;;;;8.27;5.93;;;;;;;6.79;61.80;102107.72;7999149;28;20064;-67
2021/11/15 05:07:28;;;;;;;8.75;6.10;;;;;;;6.75;62.08;102098.28;7986702;28;20040;-67
2021/11/15 05:11:18;;;;;;;10.43;6.45;;;;;;;6.87;62.21;102110.94;7997764;28;20120;-67
2021/11/15 05:15:12;;;;;;;9.38;5.70;;;;;;;6.90;61.79;102115.22;7995034;28;20036;-67
2021/11/15 05:19:02;;;;;;;8.70;5.32;;;;;;;6.89;62.06;102105.66;7993363;28;20041;-68
2021/11/15 05:22:53;;;;;;;9.57;6.32;;;;;;;6.90;61.61;102107.38;7998691;28;20135;-67
2021/11/15 05:26:45;;;;;;;9.85;6.63;;;;;;;6.91;61.64;102114.31;7990085;28;20326;-67
2021/11/15 05:30:36;;;;;;;7.93;5.35;;;;;;;6.92;61.90;102108.19;7996659;28;20028;-68
2021/11/15 05:34:27;;;;;;;13.35;6.78;;;;;;;6.92;61.90;102114.28;7994589;28;20116;-68
2021/11/15 05:38:17;;;;;;;10.85;6.97;;;;;;;6.91;61.71;102111.72;7991356;28;20455;-67
2021/11/15 05:42:09;;;;;;;12.63;6.97;;;;;;;6.93;62.25;102115.97;7990522;28;20047;-68
2021/11/15 05:45:59;;;;;;;8.88;5.88;;;;;;;6.90;61.74;102110.00;7991944;28;20080;-67
2021/11/15 05:49:50;;;;;;;10.23;6.30;;;;;;;6.89;61.73;102109.13;7991873;28;20083;-67
2021/11/15 05:53:45;;;;;;;10.38;6.75;;;;;;;6.90;61.89;102116.06;8001461;28;20029;-67
2021/11/15 05:57:36;;;;;;;10.43;6.97;;;;;;;6.86;61.82;102101.41;7988633;28;20041;-67
2021/11/15 06:01:27;;;;;;;10.80;6.70;;;;;;;6.94;61.62;102115.06;7992440;28;20150;-65
2021/11/15 06:05:18;;;;;;;10.43;6.57;;;;;;;6.94;61.83;102116.81;7992426;28;20379;-65
2021/11/15 06:09:08;;;;;;;12.80;6.88;;;;;;;6.94;61.97;102117.69;7997433;28;20021;-67
2021/11/15 06:12:59;;;;;;;10.98;6.00;;;;;;;6.94;61.81;102115.06;7991317;28;20029;-68
2021/11/15 06:16:50;;;;;;;10.13;6.40;;;;;;;6.94;61.75;102116.81;8004448;28;20033;-65
2021/11/15 06:20:41;;;;;;;12.35;7.53;;;;;;;6.95;61.71;102127.25;7987893;28;20043;-67
2021/11/15 06:24:32;;;;;;;11.10;7.43;;;;;;;6.94;61.70;102119.44;7985349;28;20539;-67
2021/11/15 06:28:22;;;;;;;13.20;7.55;;;;;;;6.92;61.90;102122.13;7986026;28;20032;-67
2021/11/15 06:32:14;;;;;;;15.43;7.57;;;;;;;6.94;61.48;102127.28;7989505;28;20582;-67
2021/11/15 06:36:05;;;;;;;9.55;5.70;;;;;;;6.94;61.46;102124.66;7986356;28;20608;-68
2021/11/15 06:39:55;;;;;;;9.18;6.40;;;;;;;6.93;61.54;102133.41;7989528;28;20540;-67
2021/11/15 06:43:46;;;;;;;11.43;7.35;;;;;;;6.93;61.55;102133.41;7987614;28;20819;-67
2021/11/15 06:47:38;;;;;;;12.10;7.60;;;;;;;6.94;61.28;102135.97;7990586;28;20486;-67
2021/11/15 06:51:30;;;;;;;12.15;7.63;;;;;;;6.91;61.67;102135.22;7995489;28;20041;-67
2021/11/15 06:55:23;;;;;;;12.00;7.57;;;;;;;6.90;61.42;102128.28;7984309;28;20040;-67
2021/11/15 06:59:13;;;;;;;11.07;6.97;;;;;;;6.90;61.39;102139.59;7991871;28;20037;-67
2021/11/15 07:03:04;;;;;;;11.63;6.88;;;;;;;6.90;61.62;102142.19;7993426;28;20024;-67
2021/11/15 07:06:55;;;;;;;15.35;8.20;;;;;;;6.89;61.45;102137.88;7997881;28;20082;-67
2021/11/15 07:10:45;;;;;;;11.38;6.88;;;;;;;6.90;61.77;102136.97;7989408;28;20542;-67
2021/11/15 07:14:36;;;;;;;10.93;7.03;;;;;;;6.90;61.35;102136.97;7989859;28;20040;-67
2021/11/15 07:18:28;;;;;;;10.25;7.00;;;;;;;6.90;61.27;102143.94;7990707;28;20029;-67
2021/11/15 07:22:18;;;;;;;14.63;8.68;;;;;;;6.88;61.50;102146.63;7999310;28;20045;-67
2021/11/15 07:26:09;;;;;;;13.35;7.97;;;;;;;6.88;61.46;102153.59;7995100;28;20104;-67
2021/11/15 07:30:00;;;;;;;12.88;7.55;;;;;;;6.86;61.71;102158.88;8003057;28;20497;-67
2021/11/15 07:33:51;;;;;;;13.23;6.85;;;;;;;6.85;61.45;102156.28;7992566;28;20090;-67
2021/11/15 07:37:41;;;;;;;13.85;7.22;;;;;;;6.81;61.44;102146.84;7995031;28;20521;-67
2021/11/15 07:41:32;;;;;;;13.77;7.57;;;;;;;6.83;61.32;102160.72;7994487;28;20120;-68
2021/11/15 07:45:23;;;;;;;11.20;6.88;;;;;;;6.83;61.08;102168.56;7986893;28;20044;-67
2021/11/15 07:49:14;;;;;;;13.80;8.35;;;;;;;6.82;61.22;102165.09;7995202;28;20026;-67
2021/11/15 07:53:06;;;;;;;10.50;6.68;;;;;;;6.82;61.24;102166.84;7997394;28;20115;-67
2021/11/15 07:56:57;;;;;;;10.93;6.63;;;;;;;6.80;61.44;102168.66;7992919;28;20037;-67
2021/11/15 08:00:49;;;;;;;12.07;7.45;;;;;;;6.79;61.38;102173.00;8003608;28;20040;-67
2021/11/15 08:04:39;;;;;;;10.98;6.47;;;;;;;6.77;61.20;102169.56;7994585;28;20035;-67
2021/11/15 08:08:30;;;;;;;15.65;8.07;;;;;;;6.79;61.33;102182.59;7986831;28;20040;-68
2021/11/15 08:12:21;;;;;;;10.07;6.45;;;;;;;6.77;61.42;102174.81;7996537;28;20036;-68
2021/11/15 08:16:11;;;;;;;11.15;7.25;;;;;;;6.77;61.46;102173.94;7993777;28;20680;-68
2021/11/15 08:20:04;;;;;;;13.07;7.55;;;;;;;6.78;61.50;102178.28;7996179;28;20025;-68
2021/11/15 08:23:56;;;;;;;13.75;8.02;;;;;;;6.77;61.29;102164.34;8000025;28;20511;-68
2021/11/15 08:27:46;;;;;;;12.10;7.70;;;;;;;6.77;60.94;102171.34;7994337;28;20104;-68
2021/11/15 08:31:39;;;;;;;14.63;8.25;;;;;;;6.69;61.05;102155.00;7993213;28;20567;-68
2021/11/15 08:35:30;;;;;;;14.80;9.02;;;;;;;6.72;61.17;102178.47;7988444;28;20116;-68
2021/11/15 08:39:24;;;;;;;18.88;7.38;;;;;;;6.71;60.91;102181.94;7999734;28;20392;-67
2021/11/15 08:43:20;;;;;;;13.93;7.13;;;;;;;6.71;60.97;102174.09;7995267;28;20040;-67
2021/11/15 08:47:10;;;;;;;13.23;7.13;;;;;;;6.70;61.26;102160.19;7998754;28;20508;-67
2021/11/15 08:51:04;;;;;;;11.50;7.10;;;;;;;6.72;60.93;102165.41;8002938;28;20033;-68
2021/11/15 08:54:57;;;;;;;13.40;7.45;;;;;;;6.73;61.08;102167.09;7989434;28;20021;-68
2021/11/15 08:58:48;;;;;;;12.10;7.05;;;;;;;6.72;61.35;102155.78;7984442;28;20029;-67
2021/11/15 09:02:38;;;;;;;12.05;7.70;;;;;;;6.74;61.48;102160.97;7977129;28;20041;-68
2021/11/15 09:06:34;;;;;;;12.10;7.53;;;;;;;6.74;61.05;102177.50;7987151;28;20086;-68
2021/11/15 09:10:25;;;;;;;13.38;7.97;;;;;;;6.78;61.33;102186.09;7982980;28;20469;-68
2021/11/15 09:14:19;;;;;;;14.32;8.15;;;;;;;6.78;61.43;102176.53;7975233;28;20490;-68
2021/11/15 09:18:10;;;;;;;15.38;8.55;;;;;;;6.80;61.31;102185.16;7976694;28;20061;-67
2021/11/15 09:22:01;;;;;;;13.85;8.05;;;;;;;6.83;61.21;102174.63;7981009;28;20043;-68
2021/11/15 09:25:53;;;;;;;13.63;8.40;;;;;;;6.84;61.21;102172.88;7990917;28;20398;-67
2021/11/15 09:29:46;;;;;;;12.70;7.85;;;;;;;6.84;61.02;102160.66;7982518;28;20032;-66
2021/11/15 09:33:37;;;;;;;13.52;8.85;;;;;;;6.85;61.33;102171.97;7984013;28;20083;-67
2021/11/15 09:37:28;;;;;;;11.77;7.32;;;;;;;6.85;61.26;102162.38;7991077;28;20043;-66
2021/11/15 09:41:18;;;;;;;15.00;7.75;;;;;;;6.81;61.04;102162.50;7992145;28;20029;-66
2021/11/15 09:45:09;;;;;;;13.70;7.32;;;;;;;6.87;61.42;102180.63;7989507;28;20135;-67
2021/11/15 09:49:05;;;;;;;13.80;7.43;;;;;;;6.87;61.37;102173.63;7988091;28;20033;-67
2021/11/15 09:52:55;;;;;;;13.57;7.40;;;;;;;6.87;60.99;102176.25;7984951;28;20048;-66
2021/11/15 09:56:46;;;;;;;12.48;7.28;;;;;;;6.88;61.10;102183.19;7985337;28;20029;-66
2021/11/15 10:00:39;;;;;;;14.77;7.30;;;;;;;6.87;60.92;102172.78;7980270;28;20083;-66
2021/11/15 10:04:30;;;;;;;12.10;7.30;;;;;;;6.86;61.29;102166.69;7986045;28;20537;-67
2021/11/15 10:08:21;;;;;;;12.52;7.38;;;;;;;6.86;61.17;102171.91;7984845;28;20724;-67
2021/11/15 10:12:14;;;;;;;13.65;8.05;;;;;;;6.85;61.22;102183.25;7988794;28;20184;-67
2021/11/15 10:16:13;;;;;;;15.38;7.72;;;;;;;6.84;60.86;102180.72;7979176;28;20048;-67
2021/11/15 10:20:03;;;;;;;13.93;7.35;;;;;;;6.83;60.92;102185.09;7976757;28;20033;-66
2021/11/15 10:23:56;;;;;;;9.85;6.20;;;;;;;6.83;60.86;102182.47;7979357;28;20516;-66
2021/11/15 10:28:05;;;;;;;9.80;5.55;;;;;;;6.83;60.92;102181.59;7977115;28;20037;-66
2021/11/15 10:32:03;;;;;;;10.38;5.97;;;;;;;6.83;61.13;102174.63;7995747;28;20033;-66
2021/11/15 10:35:53;;;;;;;11.77;6.07;;;;;;;6.84;61.26;102170.28;7984453;28;20071;-65
2021/11/15 10:40:00;;;;;;;13.52;6.65;;;;;;;6.84;61.22;102171.09;7980402;28;20468;-66
2021/11/15 10:43:59;;;;;;;11.25;6.20;;;;;;;6.84;60.91;102154.59;7982202;28;20372;-66
2021/11/15 10:47:53;;;;;;;10.10;5.63;;;;;;;6.87;60.82;102157.09;7963531;28;20033;-68
2021/11/15 10:52:10;;;;;;;9.23;5.82;;;;;;;6.87;61.19;102144.06;7978107;28;20453;-67
2021/11/15 10:56:09;;;;;;;11.55;6.38;;;;;;;6.86;61.04;102140.56;7992037;28;20451;-68
2021/11/15 11:00:06;;;;;;;11.10;6.95;;;;;;;6.87;61.15;102131.00;7992951;28;20064;-67
2021/11/15 11:04:11;;;;;;;11.05;6.68;;;;;;;6.88;60.95;102133.56;7989662;28;20111;-67
2021/11/15 11:08:13;;;;;;;11.45;6.53;;;;;;;6.89;60.72;102134.38;7992858;28;20045;-67
2021/11/15 11:12:14;;;;;;;12.05;7.07;;;;;;;6.89;61.03;102124.81;7997105;28;20120;-67
2021/11/15 11:16:05;;;;;;;11.32;6.50;;;;;;;6.91;61.22;102122.16;7998571;28;20022;-67
2021/11/15 11:21:02;;;;;;;10.70;6.03;;;;;;;6.93;60.75;102115.09;7985214;28;20033;-67
2021/11/15 11:28:36;;;;;;;12.75;6.43;;;;;;;6.93;60.75;102113.34;7970101;28;20128;-68
2021/11/15 11:32:29;;;;;;;13.85;5.57;;;;;;;6.95;60.73;102110.72;7993041;28;20029;-67
2021/11/15 11:36:20;;;;;;;8.52;4.93;;;;;;;6.94;60.58;102115.06;7991955;28;20060;-67
2021/11/15 11:40:11;;;;;;;10.40;5.55;;;;;;;6.93;60.64;102110.75;7973779;28;20033;-67
2021/11/15 11:44:03;;;;;;;10.70;6.20;;;;;;;6.94;60.99;102111.59;7995274;28;20441;-67
2021/11/15 11:47:55;;;;;;;10.23;6.38;;;;;;;6.94;60.47;102106.38;7985687;28;20108;-66
2021/11/15 11:51:50;;;;;;;13.40;6.95;;;;;;;6.93;60.31;102102.03;7983094;28;20037;-66
2021/11/15 11:55:45;;;;;;;11.65;6.68;;;;;;;6.92;60.74;102102.97;7985893;28;20567;-67
2021/11/15 11:59:40;;;;;;;10.98;6.53;;;;;;;6.91;60.56;102093.41;7978971;28;20036;-66
2021/11/15 12:03:32;;;;;;;9.85;6.38;;;;;;;6.95;60.57;102085.44;7993705;28;20029;-67
2021/11/15 12:07:28;;;;;;;12.77;7.22;;;;;;;6.95;60.82;102085.44;7993557;28;20063;-68
2021/11/15 12:11:34;;;;;;;12.90;6.90;;;;;;;6.98;60.92;102095.78;7984427;28;20025;-67
2021/11/15 12:15:28;;;;;;;10.10;6.13;;;;;;;6.99;60.67;102089.66;7990191;28;20024;-67
2021/11/15 12:19:45;;;;;;;14.23;6.57;;;;;;;7.01;60.60;102084.38;7986007;28;20044;-67
2021/11/15 12:23:40;;;;;;;10.85;6.68;;;;;;;7.00;60.74;102072.22;7983994;28;20075;-67
2021/11/15 12:27:43;;;;;;;12.38;7.50;;;;;;;7.03;60.57;102072.13;7986492;28;20057;-67
2021/11/15 12:31:51;;;;;;;9.77;6.35;;;;;;;7.03;60.68;102072.13;7990241;28;20039;-68
2021/11/15 12:35:58;;;;;;;11.23;6.28;;;;;;;7.06;60.57;102069.41;7984605;28;20033;-67
2021/11/15 12:39:49;;;;;;;10.32;6.53;;;;;;;7.05;60.81;102070.31;7988737;28;20041;-67
2021/11/15 12:43:41;;;;;;;13.30;6.38;;;;;;;7.05;60.46;102074.69;7999581;28;20037;-65
2021/11/15 12:47:38;;;;;;;8.70;5.70;;;;;;;7.03;60.42;102067.75;7987992;28;20037;-67
2021/11/15 12:51:28;;;;;;;12.07;6.95;;;;;;;6.99;60.29;102060.06;7980516;28;20491;-67
2021/11/15 12:55:20;;;;;;;13.27;6.60;;;;;;;7.03;60.12;102065.16;7990785;28;20033;-66
2021/11/15 12:59:11;;;;;;;10.65;5.40;;;;;;;7.05;60.32;102065.06;7984859;28;20040;-67
2021/11/15 13:03:10;;;;;;;9.45;5.68;;;;;;;7.06;60.38;102053.72;7984213;28;20033;-67
2021/11/15 13:07:03;;;;;;;6.55;4.47;;;;;;;7.02;60.25;102058.19;7993861;28;20037;-67
2021/11/15 13:10:53;;;;;;;10.45;5.38;;;;;;;7.06;60.20;102064.19;7987114;28;20064;-67
2021/11/15 13:14:45;;;;;;;8.02;4.45;;;;;;;7.08;60.45;102053.69;8001060;28;20025;-67
2021/11/15 13:18:36;;;;;;;7.72;4.60;;;;;;;7.10;60.14;102057.09;7990996;28;20035;-67
2021/11/15 13:22:27;;;;;;;8.88;5.15;;;;;;;7.10;60.42;102049.25;7983484;28;20072;-68
2021/11/15 13:26:17;;;;;;;7.57;4.40;;;;;;;7.11;60.14;102049.22;7988807;28;20147;-67
2021/11/15 13:30:15;;;;;;;7.82;4.80;;;;;;;7.11;60.05;102045.75;7988524;28;20024;-65
2021/11/15 13:34:06;;;;;;;8.45;4.82;;;;;;;7.11;60.17;102043.13;7984763;28;20029;-65
2021/11/15 13:38:01;;;;;;;10.95;5.10;;;;;;;7.13;59.97;102050.03;7983892;28;20052;-65
2021/11/15 13:41:51;;;;;;;10.57;5.50;;;;;;;7.12;60.09;102044.84;7978141;28;20098;-65
2021/11/15 13:45:43;;;;;;;8.95;5.05;;;;;;;7.11;59.87;102030.91;7987787;28;20045;-64
2021/11/15 13:49:35;;;;;;;8.38;5.15;;;;;;;7.12;59.90;102023.94;7978872;28;20053;-63
2021/11/15 13:53:26;;;;;;;9.50;5.18;;;;;;;7.11;60.30;102025.69;7987537;28;20056;-67
2021/11/15 13:57:18;;;;;;;7.90;5.10;;;;;;;7.14;60.12;102015.13;7991078;28;20079;-67
2021/11/15 14:01:10;;;;;;;8.00;4.97;;;;;;;7.15;60.21;102021.22;8001227;28;20091;-66
2021/11/15 14:05:02;;;;;;;6.97;4.78;;;;;;;7.14;59.82;102020.34;7990444;28;20102;-66
2021/11/15 14:09:00;;;;;;;11.43;5.65;;;;;;;7.15;59.77;102018.59;7987308;28;20035;-67
2021/11/15 14:12:50;;;;;;;9.27;5.57;;;;;;;7.13;59.87;102023.91;7989018;28;20664;-67
2021/11/15 14:16:41;;;;;;;9.25;6.07;;;;;;;7.13;59.95;102023.91;7989321;28;20032;-67
2021/11/15 14:20:32;;;;;;;8.20;5.03;;;;;;;7.14;60.11;102033.41;7979124;28;20039;-67
2021/11/15 14:24:22;;;;;;;8.70;5.18;;;;;;;7.14;59.74;102024.72;7988015;28;20568;-67
2021/11/15 14:28:17;;;;;;;7.85;5.35;;;;;;;7.13;60.08;102021.28;8001712;28;20079;-66
2021/11/15 14:32:08;;;;;;;9.35;5.38;;;;;;;7.13;59.88;102018.69;7985958;28;20418;-65
2021/11/15 14:35:58;;;;;;;8.32;5.10;;;;;;;7.13;59.82;102030.88;7984742;28;20041;-66
2021/11/15 14:39:49;;;;;;;7.68;4.97;;;;;;;7.12;59.75;102039.63;7986948;28;20029;-67
2021/11/15 14:43:40;;;;;;;8.45;5.22;;;;;;;7.09;59.85;102034.50;7987805;28;20128;-68
2021/11/15 14:47:31;;;;;;;9.07;4.90;;;;;;;7.07;59.72;102028.47;7980876;28;20035;-67
2021/11/15 14:51:21;;;;;;;6.68;4.28;;;;;;;6.99;59.65;102023.50;7989663;28;20498;-66
2021/11/15 14:55:15;;;;;;;7.60;4.60;;;;;;;7.02;59.75;102021.63;7985153;28;20025;-67
2021/11/15 14:59:05;;;;;;;7.38;4.32;;;;;;;7.00;59.66;102033.91;7986834;28;20041;-66
2021/11/15 15:02:56;;;;;;;10.27;4.55;;;;;;;6.98;59.88;102030.47;7988979;28;20041;-68
2021/11/15 15:06:48;;;;;;;6.53;4.13;;;;;;;6.97;59.82;102031.38;7991984;28;20432;-65
2021/11/15 15:10:39;;;;;;;6.03;4.03;;;;;;;6.98;59.75;102034.84;7988428;28;20037;-65
2021/11/15 15:14:29;;;;;;;7.07;4.20;;;;;;;6.95;59.62;102032.34;7986032;28;20501;-67
2021/11/15 15:18:21;;;;;;;8.02;4.30;;;;;;;6.94;59.40;102033.22;7994282;28;20041;-67
2021/11/15 15:22:12;;;;;;;6.82;3.58;;;;;;;6.92;59.46;102022.84;7989107;28;20467;-67
2021/11/15 15:26:02;;;;;;;8.77;4.45;;;;;;;6.92;59.92;102022.00;7980215;28;20044;-68
2021/11/15 15:29:53;;;;;;;5.95;3.60;;;;;;;6.86;59.47;102007.38;7980774;28;20103;-67
2021/11/15 15:33:45;;;;;;;5.97;3.92;;;;;;;6.92;59.42;102009.78;7984332;28;20039;-67
2021/11/15 15:37:36;;;;;;;7.32;3.88;;;;;;;6.89;59.27;102001.16;7983056;28;20040;-67
2021/11/15 15:41:29;;;;;;;5.43;3.53;;;;;;;6.88;59.31;102005.56;7984559;28;20043;-66
2021/11/15 15:45:21;;;;;;;6.30;3.70;;;;;;;6.86;59.50;102006.50;7992787;28;20403;-67
2021/11/15 15:49:11;;;;;;;5.75;3.53;;;;;;;6.84;59.41;102014.38;7994659;28;20032;-67
2021/11/15 15:53:03;;;;;;;7.60;3.90;;;;;;;6.84;59.34;102008.31;7992706;28;20037;-67
2021/11/15 15:56:54;;;;;;;8.30;3.53;;;;;;;6.82;59.34;102005.75;7993183;28;20037;-68
2021/11/15 16:00:44;;;;;;;6.80;3.72;;;;;;;6.76;59.59;102000.72;7978275;28;20050;-68
2021/11/15 16:09:15;;;;;;;6.53;3.55;;;;;;;6.78;59.30;102019.81;7991532;28;20431;-68
2021/11/15 16:17:21;;;;;;;5.75;3.40;;;;;;;6.75;59.65;102009.47;7990680;28;20020;-68
2021/11/15 16:21:11;;;;;;;5.60;3.50;;;;;;;6.73;59.44;102011.28;7995743;28;20573;-68
2021/11/15 16:25:02;;;;;;;9.68;4.05;;;;;;;6.75;59.30;102026.91;7998105;28;20044;-68
2021/11/15 16:28:53;;;;;;;6.50;3.92;;;;;;;6.75;59.57;102017.31;8003262;28;20074;-68
2021/11/15 16:32:44;;;;;;;8.55;4.13;;;;;;;6.76;59.52;102023.38;8001604;28;20037;-68
2021/11/15 16:36:35;;;;;;;6.43;4.07;;;;;;;6.77;59.57;102019.84;7993698;28;20037;-68
2021/11/15 16:40:25;;;;;;;6.47;3.88;;;;;;;6.76;59.66;102020.78;7996603;28;20028;-68
2021/11/15 16:44:18;;;;;;;9.32;3.80;;;;;;;6.77;59.65;102027.69;7993820;28;20052;-68
2021/11/15 16:48:09;;;;;;;5.72;4.03;;;;;;;6.72;59.33;102017.38;8001889;28;20133;-68
2021/11/15 16:52:00;;;;;;;8.20;4.45;;;;;;;6.78;59.38;102032.00;7997050;28;20040;-68
2021/11/15 16:55:56;;;;;;;8.55;4.20;;;;;;;6.75;59.27;102026.91;7999824;28;20033;-68
2021/11/15 16:59:46;;;;;;;5.85;4.03;;;;;;;6.80;59.13;102038.06;8002012;28;20033;-68
2021/11/15 17:03:42;;;;;;;8.38;4.10;;;;;;;6.80;59.23;102036.28;7998516;28;20039;-69
2021/11/15 17:07:33;;;;;;;9.13;4.85;;;;;;;6.81;59.46;102034.53;7998113;28;20064;-68
2021/11/15 17:11:27;;;;;;;7.72;4.10;;;;;;;6.81;59.67;102038.00;7993252;28;20059;-68
2021/11/15 17:15:18;;;;;;;7.40;4.68;;;;;;;6.81;59.42;102042.34;7994874;28;20057;-68
2021/11/15 17:19:09;;;;;;;6.10;4.07;;;;;;;6.79;59.11;102039.81;7998148;28;20091;-68
2021/11/15 17:23:00;;;;;;;7.35;4.03;;;;;;;6.80;59.32;102041.50;7994176;28;20417;-68
2021/11/15 17:26:50;;;;;;;8.52;4.13;;;;;;;6.80;59.48;102032.84;7989970;28;20032;-68
2021/11/15 17:30:41;;;;;;;8.35;4.88;;;;;;;6.78;59.23;102037.25;7996239;28;20106;-68
2021/11/15 17:34:32;;;;;;;6.60;4.20;;;;;;;6.76;59.31;102036.44;7984688;28;20059;-68
2021/11/15 17:38:23;;;;;;;7.97;4.50;;;;;;;6.75;59.44;102030.38;7988252;28;20037;-68
2021/11/15 17:42:13;;;;;;;7.90;4.75;;;;;;;6.74;59.04;102033.03;7978483;28;20040;-68
2021/11/15 17:46:08;;;;;;;8.57;4.80;;;;;;;6.73;59.24;102029.53;7983864;28;20043;-68
2021/11/15 17:50:05;;;;;;;9.02;4.72;;;;;;;6.73;59.40;102031.31;7983535;28;20044;-68
2021/11/15 17:54:01;;;;;;;12.52;5.38;;;;;;;6.69;59.32;102033.13;7982575;28;20041;-68
2021/11/15 17:57:52;;;;;;;7.75;4.03;;;;;;;6.71;59.38;102040.94;7982593;28;20044;-68
2021/11/15 18:01:43;;;;;;;9.82;4.57;;;;;;;6.71;59.58;102043.53;7992387;28;20064;-71
2021/11/15 18:05:34;;;;;;;7.13;4.45;;;;;;;6.67;59.34;102034.09;7990509;28;20045;-70
2021/11/15 18:09:25;;;;;;;9.68;4.55;;;;;;;6.70;59.21;102047.03;7980749;28;20033;-68
2021/11/15 18:13:15;;;;;;;7.80;4.72;;;;;;;6.70;59.59;102049.66;7986133;28;20037;-71
2021/11/15 18:17:06;;;;;;;9.23;4.88;;;;;;;6.70;59.07;102034.84;7983333;28;20813;-71
2021/11/15 18:20:57;;;;;;;8.70;4.50;;;;;;;6.71;59.18;102036.56;7977577;28;20048;-71